sensor_id;sensor_type;location;lat;lon;timestamp;pressure;altitude;pressure_sealevel;temperature;humidity
9676;BME280;4876;42.656;23.292;2023-07-13T00:00:02;94635.50;;;25.33;53.50
9676;BME280;4876;42.656;23.292;2023-07-13T00:02:33;94646.63;;;25.38;53.62
9676;BME280;4876;42.656;23.292;2023-07-13T00:05:00;94642.06;;;25.32;54.41
9676;BME280;4876;42.656;23.292;2023-07-13T00:07:27;94644.75;;;25.32;54.27
9676;BME280;4876;42.656;23.292;2023-07-13T00:09:55;94639.22;;;25.46;53.81
9676;BME280;4876;42.656;23.292;2023-07-13T00:12:24;94633.16;;;25.38;53.95
9676;BME280;4876;42.656;23.292;2023-07-13T00:14:51;94640.09;;;25.36;53.94
9676;BME280;4876;42.656;23.292;2023-07-13T00:17:17;94637.47;;;25.25;54.54
9676;BME280;4876;42.656;23.292;2023-07-13T00:19:44;94635.91;;;25.31;54.12
9676;BME280;4876;42.656;23.292;2023-07-13T00:22:11;94634.16;;;25.10;54.31
9676;BME280;4876;42.656;23.292;2023-07-13T00:24:38;94634.56;;;24.98;55.14
9676;BME280;4876;42.656;23.292;2023-07-13T00:27:08;94630.28;;;25.11;53.86
9676;BME280;4876;42.656;23.292;2023-07-13T00:29:35;94627.22;;;25.09;54.76
9676;BME280;4876;42.656;23.292;2023-07-13T00:32:02;94624.09;;;25.18;54.48
9676;BME280;4876;42.656;23.292;2023-07-13T00:34:29;94625.25;;;25.17;54.89
9676;BME280;4876;42.656;23.292;2023-07-13T00:36:56;94625.63;;;25.15;53.77
9676;BME280;4876;42.656;23.292;2023-07-13T00:39:23;94621.47;;;25.00;54.97
9676;BME280;4876;42.656;23.292;2023-07-13T00:41:50;94621.97;;;24.84;55.91
9676;BME280;4876;42.656;23.292;2023-07-13T00:44:19;94623.94;;;24.77;55.98
9676;BME280;4876;42.656;23.292;2023-07-13T00:46:48;94636.59;;;24.80;56.28
9676;BME280;4876;42.656;23.292;2023-07-13T00:49:18;94635.09;;;24.79;56.08
9676;BME280;4876;42.656;23.292;2023-07-13T00:51:55;94639.66;;;24.82;56.31
9676;BME280;4876;42.656;23.292;2023-07-13T00:54:26;94627.88;;;24.61;55.54
9676;BME280;4876;42.656;23.292;2023-07-13T00:56:57;94627.84;;;24.65;56.34
9676;BME280;4876;42.656;23.292;2023-07-13T00:59:26;94624.50;;;24.43;56.70
9676;BME280;4876;42.656;23.292;2023-07-13T01:01:53;94619.09;;;24.50;56.29
9676;BME280;4876;42.656;23.292;2023-07-13T01:04:23;94617.16;;;24.51;56.26
9676;BME280;4876;42.656;23.292;2023-07-13T01:06:50;94617.13;;;24.61;56.03
9676;BME280;4876;42.656;23.292;2023-07-13T01:09:17;94615.59;;;24.60;56.02
9676;BME280;4876;42.656;23.292;2023-07-13T01:11:44;94610.69;;;24.41;56.41
9676;BME280;4876;42.656;23.292;2023-07-13T01:14:11;94606.84;;;24.38;56.43
9676;BME280;4876;42.656;23.292;2023-07-13T01:16:41;94611.53;;;24.09;57.13
9676;BME280;4876;42.656;23.292;2023-07-13T01:19:18;94620.00;;;24.01;57.91
9676;BME280;4876;42.656;23.292;2023-07-13T01:21:51;94619.97;;;24.08;57.75
9676;BME280;4876;42.656;23.292;2023-07-13T01:24:18;94618.47;;;24.10;58.19
9676;BME280;4876;42.656;23.292;2023-07-13T01:26:45;94607.75;;;23.93;59.23
9676;BME280;4876;42.656;23.292;2023-07-13T01:29:12;94603.88;;;24.04;58.58
9676;BME280;4876;42.656;23.292;2023-07-13T01:31:39;94605.41;;;24.02;58.66
9676;BME280;4876;42.656;23.292;2023-07-13T01:34:05;94609.22;;;24.08;58.34
9676;BME280;4876;42.656;23.292;2023-07-13T01:36:33;94601.56;;;24.03;58.40
9676;BME280;4876;42.656;23.292;2023-07-13T01:39:01;94607.34;;;24.05;58.07
9676;BME280;4876;42.656;23.292;2023-07-13T01:41:28;94604.28;;;23.99;58.11
9676;BME280;4876;42.656;23.292;2023-07-13T01:43:54;94603.88;;;24.04;58.25
9676;BME280;4876;42.656;23.292;2023-07-13T01:46:21;94603.47;;;24.16;58.03
9676;BME280;4876;42.656;23.292;2023-07-13T01:48:48;94600.00;;;24.12;58.44
9676;BME280;4876;42.656;23.292;2023-07-13T01:51:15;94593.97;;;23.80;58.84
9676;BME280;4876;42.656;23.292;2023-07-13T01:53:42;94602.00;;;23.87;59.51
9676;BME280;4876;42.656;23.292;2023-07-13T01:56:10;94601.66;;;23.71;60.00
9676;BME280;4876;42.656;23.292;2023-07-13T01:58:37;94603.59;;;23.74;59.65
9676;BME280;4876;42.656;23.292;2023-07-13T02:01:03;94604.38;;;23.67;59.16
9676;BME280;4876;42.656;23.292;2023-07-13T02:03:30;94611.63;;;23.56;59.17
9676;BME280;4876;42.656;23.292;2023-07-13T02:05:57;94620.06;;;23.47;60.33
9676;BME280;4876;42.656;23.292;2023-07-13T02:08:24;94615.50;;;23.37;60.34
9676;BME280;4876;42.656;23.292;2023-07-13T02:10:51;94609.72;;;23.49;60.70
9676;BME280;4876;42.656;23.292;2023-07-13T02:13:19;94616.25;;;23.62;60.43
9676;BME280;4876;42.656;23.292;2023-07-13T02:15:45;94617.78;;;23.49;60.68
9676;BME280;4876;42.656;23.292;2023-07-13T02:18:12;94619.28;;;23.54;60.44
9676;BME280;4876;42.656;23.292;2023-07-13T02:20:42;94628.13;;;23.44;61.46
9676;BME280;4876;42.656;23.292;2023-07-13T02:23:09;94606.28;;;23.38;61.24
9676;BME280;4876;42.656;23.292;2023-07-13T02:25:36;94617.41;;;23.65;60.94
9676;BME280;4876;42.656;23.292;2023-07-13T02:28:03;94623.53;;;23.76;60.92
9676;BME280;4876;42.656;23.292;2023-07-13T02:30:31;94628.91;;;23.76;60.89
9676;BME280;4876;42.656;23.292;2023-07-13T02:32:58;94629.28;;;23.82;60.97
9676;BME280;4876;42.656;23.292;2023-07-13T02:35:25;94628.13;;;23.83;61.09
9676;BME280;4876;42.656;23.292;2023-07-13T02:37:52;94626.19;;;23.83;60.72
9676;BME280;4876;42.656;23.292;2023-07-13T02:40:18;94615.81;;;23.89;61.37
9676;BME280;4876;42.656;23.292;2023-07-13T02:42:45;94624.63;;;23.89;60.68
9676;BME280;4876;42.656;23.292;2023-07-13T02:45:12;94620.78;;;23.94;61.49
9676;BME280;4876;42.656;23.292;2023-07-13T02:47:41;94619.25;;;23.97;60.95
9676;BME280;4876;42.656;23.292;2023-07-13T02:50:08;94614.25;;;24.02;60.79
9676;BME280;4876;42.656;23.292;2023-07-13T02:52:35;94621.53;;;24.05;60.71
9676;BME280;4876;42.656;23.292;2023-07-13T02:55:02;94616.97;;;23.92;61.05
9676;BME280;4876;42.656;23.292;2023-07-13T02:57:29;94620.44;;;23.92;60.66
9676;BME280;4876;42.656;23.292;2023-07-13T02:59:58;94620.84;;;23.73;61.18
9676;BME280;4876;42.656;23.292;2023-07-13T03:02:25;94617.78;;;23.63;62.07
9676;BME280;4876;42.656;23.292;2023-07-13T03:04:55;94623.16;;;23.74;61.65
9676;BME280;4876;42.656;23.292;2023-07-13T03:07:21;94627.38;;;23.75;61.51
9676;BME280;4876;42.656;23.292;2023-07-13T03:09:48;94631.59;;;23.73;62.57
9676;BME280;4876;42.656;23.292;2023-07-13T03:12:15;94633.47;;;23.83;61.73
9676;BME280;4876;42.656;23.292;2023-07-13T03:14:42;94634.63;;;23.89;61.15
9676;BME280;4876;42.656;23.292;2023-07-13T03:17:08;94634.56;;;24.17;61.09
9676;BME280;4876;42.656;23.292;2023-07-13T03:19:35;94642.16;;;24.40;60.41
9676;BME280;4876;42.656;23.292;2023-07-13T03:22:04;94636.75;;;24.51;60.35
9676;BME280;4876;42.656;23.292;2023-07-13T03:24:32;94629.81;;;24.57;59.10
9676;BME280;4876;42.656;23.292;2023-07-13T03:27:01;94634.94;;;24.96;58.19
9676;BME280;4876;42.656;23.292;2023-07-13T03:29:28;94644.03;;;25.20;57.98
9676;BME280;4876;42.656;23.292;2023-07-13T03:31:54;94642.38;;;25.41;57.25
9676;BME280;4876;42.656;23.292;2023-07-13T03:34:21;94647.94;;;25.64;56.46
9676;BME280;4876;42.656;23.292;2023-07-13T03:36:48;94650.97;;;25.73;56.46
9676;BME280;4876;42.656;23.292;2023-07-13T03:39:16;94651.16;;;25.93;56.24
9676;BME280;4876;42.656;23.292;2023-07-13T03:41:43;94656.22;;;26.25;55.66
9676;BME280;4876;42.656;23.292;2023-07-13T03:44:10;94649.00;;;26.53;54.26
9676;BME280;4876;42.656;23.292;2023-07-13T03:46:37;94641.69;;;26.80;54.63
9676;BME280;4876;42.656;23.292;2023-07-13T03:49:05;94649.38;;;27.13;53.53
9676;BME280;4876;42.656;23.292;2023-07-13T03:51:31;94653.91;;;27.19;54.08
9676;BME280;4876;42.656;23.292;2023-07-13T03:53:58;94654.38;;;27.37;52.34
9676;BME280;4876;42.656;23.292;2023-07-13T03:56:26;94649.25;;;27.47;52.25
9676;BME280;4876;42.656;23.292;2023-07-13T03:58:53;94646.06;;;26.37;57.21
9676;BME280;4876;42.656;23.292;2023-07-13T04:01:21;94641.69;;;26.16;58.13
9676;BME280;4876;42.656;23.292;2023-07-13T04:03:49;94643.41;;;26.67;56.45
9676;BME280;4876;42.656;23.292;2023-07-13T04:06:18;94650.50;;;27.15;55.62
9676;BME280;4876;42.656;23.292;2023-07-13T04:08:47;94642.19;;;27.29;55.17
9676;BME280;4876;42.656;23.292;2023-07-13T04:11:15;94645.41;;;26.29;56.24
9676;BME280;4876;42.656;23.292;2023-07-13T04:13:44;94643.81;;;26.66;55.42
9676;BME280;4876;42.656;23.292;2023-07-13T04:16:11;94648.03;;;26.67;55.54
9676;BME280;4876;42.656;23.292;2023-07-13T04:18:38;94636.03;;;26.41;56.10
9676;BME280;4876;42.656;23.292;2023-07-13T04:21:05;94640.38;;;26.65;55.88
9676;BME280;4876;42.656;23.292;2023-07-13T04:23:31;94637.13;;;26.77;55.35
9676;BME280;4876;42.656;23.292;2023-07-13T04:25:58;94640.34;;;25.52;59.16
9676;BME280;4876;42.656;23.292;2023-07-13T04:28:26;94643.56;;;25.33;59.15
9676;BME280;4876;42.656;23.292;2023-07-13T04:30:54;94660.06;;;25.42;58.34
9676;BME280;4876;42.656;23.292;2023-07-13T04:33:21;94655.19;;;25.74;58.22
9676;BME280;4876;42.656;23.292;2023-07-13T04:35:49;94647.47;;;26.14;57.20
9676;BME280;4876;42.656;23.292;2023-07-13T04:38:22;94655.28;;;26.43;56.13
9676;BME280;4876;42.656;23.292;2023-07-13T04:40:50;94658.22;;;26.52;56.23
9676;BME280;4876;42.656;23.292;2023-07-13T04:43:17;94669.13;;;26.07;56.69
9676;BME280;4876;42.656;23.292;2023-07-13T04:45:44;94671.59;;;26.28;56.58
9676;BME280;4876;42.656;23.292;2023-07-13T04:48:12;94668.09;;;26.31;57.09
9676;BME280;4876;42.656;23.292;2023-07-13T04:50:39;94669.38;;;26.20;58.26
9676;BME280;4876;42.656;23.292;2023-07-13T04:53:06;94681.72;;;26.17;59.14
9676;BME280;4876;42.656;23.292;2023-07-13T04:55:33;94677.59;;;26.47;58.40
9676;BME280;4876;42.656;23.292;2023-07-13T04:58:00;94678.38;;;26.06;58.78
9676;BME280;4876;42.656;23.292;2023-07-13T05:00:28;94676.94;;;26.32;58.28
9676;BME280;4876;42.656;23.292;2023-07-13T05:02:56;94672.75;;;25.90;59.80
9676;BME280;4876;42.656;23.292;2023-07-13T05:05:25;94666.53;;;25.96;60.69
9676;BME280;4876;42.656;23.292;2023-07-13T05:07:52;94690.56;;;26.21;59.65
9676;BME280;4876;42.656;23.292;2023-07-13T05:10:20;94647.88;;;26.13;59.40
9676;BME280;4876;42.656;23.292;2023-07-13T05:12:47;94685.69;;;26.47;59.40
9676;BME280;4876;42.656;23.292;2023-07-13T05:15:13;94685.41;;;26.34;60.39
9676;BME280;4876;42.656;23.292;2023-07-13T05:17:41;94688.56;;;26.25;60.36
9676;BME280;4876;42.656;23.292;2023-07-13T05:20:09;94690.34;;;26.43;60.45
9676;BME280;4876;42.656;23.292;2023-07-13T05:22:37;94686.03;;;26.49;61.88
9676;BME280;4876;42.656;23.292;2023-07-13T05:25:05;94681.81;;;26.78;60.64
9676;BME280;4876;42.656;23.292;2023-07-13T05:27:32;94691.69;;;27.19;60.01
9676;BME280;4876;42.656;23.292;2023-07-13T05:29:59;94695.38;;;27.05;59.78
9676;BME280;4876;42.656;23.292;2023-07-13T05:32:26;94685.22;;;27.13;59.56
9676;BME280;4876;42.656;23.292;2023-07-13T05:34:52;94696.53;;;27.31;59.24
9676;BME280;4876;42.656;23.292;2023-07-13T05:37:19;94694.63;;;27.55;60.20
9676;BME280;4876;42.656;23.292;2023-07-13T05:39:47;94703.16;;;27.54;59.13
9676;BME280;4876;42.656;23.292;2023-07-13T05:42:14;94694.88;;;26.83;60.39
9676;BME280;4876;42.656;23.292;2023-07-13T05:44:41;94705.31;;;27.12;59.37
9676;BME280;4876;42.656;23.292;2023-07-13T05:47:08;94709.50;;;27.17;58.94
9676;BME280;4876;42.656;23.292;2023-07-13T05:49:35;94697.41;;;26.64;61.54
9676;BME280;4876;42.656;23.292;2023-07-13T05:52:01;94704.31;;;26.99;60.19
9676;BME280;4876;42.656;23.292;2023-07-13T05:54:28;94701.72;;;27.22;58.55
9676;BME280;4876;42.656;23.292;2023-07-13T05:56:56;94697.56;;;27.14;58.54
9676;BME280;4876;42.656;23.292;2023-07-13T05:59:23;94704.69;;;27.55;57.96
9676;BME280;4876;42.656;23.292;2023-07-13T06:01:50;94701.22;;;28.25;57.01
9676;BME280;4876;42.656;23.292;2023-07-13T06:04:18;94686.13;;;28.67;54.03
9676;BME280;4876;42.656;23.292;2023-07-13T06:06:45;94684.06;;;28.11;55.06
9676;BME280;4876;42.656;23.292;2023-07-13T06:09:12;94683.13;;;27.78;55.15
9676;BME280;4876;42.656;23.292;2023-07-13T06:11:39;94686.50;;;27.59;53.05
9676;BME280;4876;42.656;23.292;2023-07-13T06:14:07;94695.41;;;27.56;54.26
9676;BME280;4876;42.656;23.292;2023-07-13T06:16:33;94692.53;;;27.16;56.29
9676;BME280;4876;42.656;23.292;2023-07-13T06:19:00;94703.78;;;27.38;55.89
9676;BME280;4876;42.656;23.292;2023-07-13T06:21:27;94706.31;;;27.76;52.21
9676;BME280;4876;42.656;23.292;2023-07-13T06:23:54;94703.38;;;27.90;52.08
9676;BME280;4876;42.656;23.292;2023-07-13T06:26:21;94710.34;;;28.11;51.46
9676;BME280;4876;42.656;23.292;2023-07-13T06:28:48;94706.06;;;28.13;51.33
9676;BME280;4876;42.656;23.292;2023-07-13T06:31:16;94711.66;;;28.03;51.81
9676;BME280;4876;42.656;23.292;2023-07-13T06:33:43;94701.53;;;28.07;52.28
9676;BME280;4876;42.656;23.292;2023-07-13T06:36:10;94708.22;;;28.46;52.32
9676;BME280;4876;42.656;23.292;2023-07-13T06:38:37;94696.66;;;28.81;49.80
9676;BME280;4876;42.656;23.292;2023-07-13T06:41:05;94693.63;;;28.79;49.50
9676;BME280;4876;42.656;23.292;2023-07-13T06:43:31;94685.44;;;29.03;50.03
9676;BME280;4876;42.656;23.292;2023-07-13T06:45:58;94695.31;;;28.93;50.44
9676;BME280;4876;42.656;23.292;2023-07-13T06:48:28;94688.06;;;28.86;51.27
9676;BME280;4876;42.656;23.292;2023-07-13T06:50:55;94684.47;;;28.93;51.64
9676;BME280;4876;42.656;23.292;2023-07-13T06:53:22;94682.59;;;28.90;52.00
9676;BME280;4876;42.656;23.292;2023-07-13T06:55:49;94685.28;;;29.10;51.55
9676;BME280;4876;42.656;23.292;2023-07-13T06:58:17;94694.38;;;29.19;51.86
9676;BME280;4876;42.656;23.292;2023-07-13T07:00:45;94686.50;;;29.41;51.47
9676;BME280;4876;42.656;23.292;2023-07-13T07:03:12;94687.50;;;29.31;49.96
9676;BME280;4876;42.656;23.292;2023-07-13T07:05:40;94701.69;;;29.19;51.08
9676;BME280;4876;42.656;23.292;2023-07-13T07:08:07;94699.19;;;28.32;53.33
9676;BME280;4876;42.656;23.292;2023-07-13T07:10:34;94690.09;;;28.82;52.27
9676;BME280;4876;42.656;23.292;2023-07-13T07:13:01;94694.09;;;29.30;50.71
9676;BME280;4876;42.656;23.292;2023-07-13T07:15:28;94687.25;;;29.42;50.91
9676;BME280;4876;42.656;23.292;2023-07-13T07:17:55;94689.00;;;29.16;51.46
9676;BME280;4876;42.656;23.292;2023-07-13T07:20:22;94690.63;;;29.30;50.74
9676;BME280;4876;42.656;23.292;2023-07-13T07:22:50;94681.44;;;29.76;50.34
9676;BME280;4876;42.656;23.292;2023-07-13T07:25:17;94683.38;;;30.37;49.06
9676;BME280;4876;42.656;23.292;2023-07-13T07:27:44;94673.19;;;30.41;49.24
9676;BME280;4876;42.656;23.292;2023-07-13T07:30:12;94693.50;;;30.49;47.55
9676;BME280;4876;42.656;23.292;2023-07-13T07:32:39;94691.38;;;30.57;47.56
9676;BME280;4876;42.656;23.292;2023-07-13T07:35:07;94678.28;;;30.10;48.49
9676;BME280;4876;42.656;23.292;2023-07-13T07:37:34;94684.25;;;29.72;49.62
9676;BME280;4876;42.656;23.292;2023-07-13T07:40:02;94679.97;;;30.20;48.30
9676;BME280;4876;42.656;23.292;2023-07-13T07:42:29;94675.38;;;30.46;47.32
9676;BME280;4876;42.656;23.292;2023-07-13T07:44:56;94675.84;;;30.58;46.97
9676;BME280;4876;42.656;23.292;2023-07-13T07:47:22;94666.16;;;30.98;47.19
9676;BME280;4876;42.656;23.292;2023-07-13T07:49:49;94670.13;;;30.68;46.61
9676;BME280;4876;42.656;23.292;2023-07-13T07:52:16;94665.59;;;30.78;47.62
9676;BME280;4876;42.656;23.292;2023-07-13T07:54:43;94665.34;;;30.30;47.65
9676;BME280;4876;42.656;23.292;2023-07-13T07:57:11;94659.59;;;30.28;48.56
9676;BME280;4876;42.656;23.292;2023-07-13T07:59:38;94664.63;;;30.72;47.93
9676;BME280;4876;42.656;23.292;2023-07-13T08:02:06;94659.97;;;31.10;47.10
9676;BME280;4876;42.656;23.292;2023-07-13T08:04:33;94651.06;;;31.10;46.46
9676;BME280;4876;42.656;23.292;2023-07-13T08:06:59;94648.88;;;30.79;46.86
9676;BME280;4876;42.656;23.292;2023-07-13T08:09:28;94647.50;;;31.00;47.62
9676;BME280;4876;42.656;23.292;2023-07-13T08:11:54;94641.69;;;30.73;48.22
9676;BME280;4876;42.656;23.292;2023-07-13T08:14:23;94633.72;;;30.66;47.92
9676;BME280;4876;42.656;23.292;2023-07-13T08:16:49;94628.03;;;30.76;48.46
9676;BME280;4876;42.656;23.292;2023-07-13T08:19:16;94637.16;;;30.95;48.13
9676;BME280;4876;42.656;23.292;2023-07-13T08:21:43;94637.69;;;30.90;48.32
9676;BME280;4876;42.656;23.292;2023-07-13T08:24:10;94634.59;;;30.63;48.99
9676;BME280;4876;42.656;23.292;2023-07-13T08:26:37;94638.22;;;30.85;49.01
9676;BME280;4876;42.656;23.292;2023-07-13T08:29:04;94630.63;;;31.05;48.42
9676;BME280;4876;42.656;23.292;2023-07-13T08:31:32;94629.31;;;30.97;47.27
9676;BME280;4876;42.656;23.292;2023-07-13T08:33:58;94640.19;;;30.97;47.56
9676;BME280;4876;42.656;23.292;2023-07-13T08:36:26;94638.06;;;31.30;47.12
9676;BME280;4876;42.656;23.292;2023-07-13T08:38:53;94627.06;;;31.34;47.41
9676;BME280;4876;42.656;23.292;2023-07-13T08:41:20;94626.97;;;31.72;46.25
9676;BME280;4876;42.656;23.292;2023-07-13T08:43:49;94623.38;;;31.28;46.29
9676;BME280;4876;42.656;23.292;2023-07-13T08:46:19;94622.06;;;31.07;46.81
9676;BME280;4876;42.656;23.292;2023-07-13T08:48:51;94619.13;;;30.76;47.04
9676;BME280;4876;42.656;23.292;2023-07-13T08:51:30;94613.00;;;30.72;47.91
9676;BME280;4876;42.656;23.292;2023-07-13T08:54:01;94620.84;;;31.21;45.96
9676;BME280;4876;42.656;23.292;2023-07-13T08:56:30;94619.13;;;31.27;46.64
9676;BME280;4876;42.656;23.292;2023-07-13T08:59:00;94629.22;;;31.39;46.78
9676;BME280;4876;42.656;23.292;2023-07-13T09:01:37;94630.50;;;31.60;46.26
9676;BME280;4876;42.656;23.292;2023-07-13T09:04:14;94630.66;;;31.78;46.50
9676;BME280;4876;42.656;23.292;2023-07-13T09:06:49;94648.13;;;31.81;46.08
9676;BME280;4876;42.656;23.292;2023-07-13T09:09:25;94648.88;;;31.81;46.75
9676;BME280;4876;42.656;23.292;2023-07-13T09:12:00;94665.66;;;32.02;45.67
9676;BME280;4876;42.656;23.292;2023-07-13T09:14:38;94649.03;;;32.22;45.05
9676;BME280;4876;42.656;23.292;2023-07-13T09:17:13;94669.56;;;32.13;44.85
9676;BME280;4876;42.656;23.292;2023-07-13T09:19:44;94657.25;;;32.09;45.14
9676;BME280;4876;42.656;23.292;2023-07-13T09:22:16;94661.41;;;32.35;44.80
9676;BME280;4876;42.656;23.292;2023-07-13T09:24:51;94652.13;;;32.46;44.44
9676;BME280;4876;42.656;23.292;2023-07-13T09:27:21;94657.03;;;32.60;43.68
9676;BME280;4876;42.656;23.292;2023-07-13T09:29:54;94663.78;;;32.68;44.40
9676;BME280;4876;42.656;23.292;2023-07-13T09:32:24;94655.44;;;32.72;44.07
9676;BME280;4876;42.656;23.292;2023-07-13T09:34:54;94656.84;;;32.76;43.35
9676;BME280;4876;42.656;23.292;2023-07-13T09:37:22;94647.28;;;32.93;43.51
9676;BME280;4876;42.656;23.292;2023-07-13T09:39:51;94646.78;;;32.86;43.78
9676;BME280;4876;42.656;23.292;2023-07-13T09:42:22;94649.84;;;32.44;44.74
9676;BME280;4876;42.656;23.292;2023-07-13T09:44:53;94638.25;;;32.84;43.73
9676;BME280;4876;42.656;23.292;2023-07-13T09:47:22;94635.19;;;33.04;43.82
9676;BME280;4876;42.656;23.292;2023-07-13T09:49:58;94633.19;;;33.35;42.91
9676;BME280;4876;42.656;23.292;2023-07-13T09:52:26;94624.16;;;33.07;42.21
9676;BME280;4876;42.656;23.292;2023-07-13T09:54:54;94630.31;;;32.67;43.53
9676;BME280;4876;42.656;23.292;2023-07-13T09:57:26;94622.63;;;32.44;43.51
9676;BME280;4876;42.656;23.292;2023-07-13T09:59:54;94622.47;;;32.48;43.59
9676;BME280;4876;42.656;23.292;2023-07-13T10:02:26;94625.44;;;32.62;42.76
9676;BME280;4876;42.656;23.292;2023-07-13T10:04:59;94608.94;;;32.57;43.14
9676;BME280;4876;42.656;23.292;2023-07-13T10:07:27;94609.41;;;32.64;42.66
9676;BME280;4876;42.656;23.292;2023-07-13T10:09:54;94598.34;;;32.90;43.59
9676;BME280;4876;42.656;23.292;2023-07-13T10:12:21;94596.97;;;33.26;37.06
9676;BME280;4876;42.656;23.292;2023-07-13T10:14:51;94584.91;;;33.45;32.38
9676;BME280;4876;42.656;23.292;2023-07-13T10:17:26;94596.47;;;33.67;32.55
9676;BME280;4876;42.656;23.292;2023-07-13T10:20:00;94587.38;;;33.89;33.34
9676;BME280;4876;42.656;23.292;2023-07-13T10:22:37;94590.13;;;34.07;30.67
9676;BME280;4876;42.656;23.292;2023-07-13T10:25:14;94592.25;;;34.03;30.56
9676;BME280;4876;42.656;23.292;2023-07-13T10:27:42;94591.66;;;34.17;30.50
9676;BME280;4876;42.656;23.292;2023-07-13T10:30:13;94591.47;;;34.30;30.85
9676;BME280;4876;42.656;23.292;2023-07-13T10:32:42;94585.69;;;34.28;31.64
9676;BME280;4876;42.656;23.292;2023-07-13T10:35:13;94584.50;;;34.20;30.85
9676;BME280;4876;42.656;23.292;2023-07-13T10:37:44;94580.09;;;34.32;31.43
9676;BME280;4876;42.656;23.292;2023-07-13T10:40:15;94581.00;;;34.28;31.65
9676;BME280;4876;42.656;23.292;2023-07-13T10:42:46;94581.59;;;34.51;31.23
9676;BME280;4876;42.656;23.292;2023-07-13T10:45:16;94521.91;;;33.98;30.16
9676;BME280;4876;42.656;23.292;2023-07-13T10:47:43;94577.03;;;34.57;30.83
9676;BME280;4876;42.656;23.292;2023-07-13T10:50:17;94568.16;;;34.71;30.92
9676;BME280;4876;42.656;23.292;2023-07-13T10:52:47;94564.84;;;34.67;31.69
9676;BME280;4876;42.656;23.292;2023-07-13T10:55:36;94559.75;;;34.84;31.40
9676;BME280;4876;42.656;23.292;2023-07-13T10:58:12;94555.34;;;34.96;31.63
9676;BME280;4876;42.656;23.292;2023-07-13T11:00:46;94553.06;;;34.94;31.39
9676;BME280;4876;42.656;23.292;2023-07-13T11:03:16;94545.41;;;34.65;31.05
9676;BME280;4876;42.656;23.292;2023-07-13T11:05:48;94539.34;;;34.70;31.60
9676;BME280;4876;42.656;23.292;2023-07-13T11:08:20;94544.22;;;34.66;30.96
9676;BME280;4876;42.656;23.292;2023-07-13T11:10:53;94534.34;;;34.69;31.67
9676;BME280;4876;42.656;23.292;2023-07-13T11:13:38;94536.78;;;34.67;32.23
9676;BME280;4876;42.656;23.292;2023-07-13T11:16:37;94517.72;;;34.81;31.75
9676;BME280;4876;42.656;23.292;2023-07-13T11:22:23;94516.03;;;34.84;31.51
9676;BME280;4876;42.656;23.292;2023-07-13T11:24:56;94513.97;;;34.79;31.91
9676;BME280;4876;42.656;23.292;2023-07-13T11:27:33;94521.03;;;34.95;31.72
9676;BME280;4876;42.656;23.292;2023-07-13T11:30:21;94514.78;;;35.03;31.58
9676;BME280;4876;42.656;23.292;2023-07-13T11:32:51;94515.41;;;34.89;31.60
9676;BME280;4876;42.656;23.292;2023-07-13T11:35:28;94504.63;;;34.95;31.75
9676;BME280;4876;42.656;23.292;2023-07-13T11:37:57;94504.00;;;34.67;31.18
9676;BME280;4876;42.656;23.292;2023-07-13T11:40:24;94500.41;;;34.85;32.88
9676;BME280;4876;42.656;23.292;2023-07-13T11:42:59;94496.16;;;34.84;31.00
9676;BME280;4876;42.656;23.292;2023-07-13T11:45:28;94500.28;;;34.79;31.75
9676;BME280;4876;42.656;23.292;2023-07-13T11:47:54;94498.53;;;34.91;32.56
9676;BME280;4876;42.656;23.292;2023-07-13T11:50:23;94499.44;;;34.97;29.58
9676;BME280;4876;42.656;23.292;2023-07-13T11:52:52;94501.94;;;34.86;29.61
9676;BME280;4876;42.656;23.292;2023-07-13T11:55:22;94504.63;;;34.95;31.18
9676;BME280;4876;42.656;23.292;2023-07-13T11:57:51;94494.28;;;34.99;30.96
9676;BME280;4876;42.656;23.292;2023-07-13T12:00:22;94417.66;;;34.60;31.83
9676;BME280;4876;42.656;23.292;2023-07-13T12:02:53;94417.75;;;34.66;31.25
9676;BME280;4876;42.656;23.292;2023-07-13T12:05:21;94482.66;;;35.13;30.58
9676;BME280;4876;42.656;23.292;2023-07-13T12:07:49;94478.06;;;35.19;30.71
9676;BME280;4876;42.656;23.292;2023-07-13T12:10:19;94461.06;;;35.15;30.52
9676;BME280;4876;42.656;23.292;2023-07-13T12:12:51;94475.31;;;35.19;31.19
9676;BME280;4876;42.656;23.292;2023-07-13T12:15:18;94474.41;;;35.22;31.83
9676;BME280;4876;42.656;23.292;2023-07-13T12:17:45;94472.16;;;35.36;32.72
9676;BME280;4876;42.656;23.292;2023-07-13T12:20:20;94466.97;;;35.38;31.80
9676;BME280;4876;42.656;23.292;2023-07-13T12:22:50;94460.00;;;35.37;32.21
9676;BME280;4876;42.656;23.292;2023-07-13T12:25:18;94450.53;;;35.47;32.38
9676;BME280;4876;42.656;23.292;2023-07-13T12:27:48;94452.31;;;35.65;32.07
9676;BME280;4876;42.656;23.292;2023-07-13T12:30:24;94454.50;;;35.75;32.14
9676;BME280;4876;42.656;23.292;2023-07-13T12:33:05;94410.16;;;35.56;32.54
9676;BME280;4876;42.656;23.292;2023-07-13T12:35:39;94445.44;;;35.69;32.13
9676;BME280;4876;42.656;23.292;2023-07-13T12:38:08;94433.00;;;35.68;32.72
9676;BME280;4876;42.656;23.292;2023-07-13T12:40:37;94445.13;;;35.91;33.94
9676;BME280;4876;42.656;23.292;2023-07-13T12:43:11;94456.44;;;36.28;34.37
9676;BME280;4876;42.656;23.292;2023-07-13T12:45:54;94442.63;;;36.37;34.09
9676;BME280;4876;42.656;23.292;2023-07-13T12:48:21;94442.09;;;36.04;31.78
9676;BME280;4876;42.656;23.292;2023-07-13T12:50:49;94430.00;;;35.96;31.79
9676;BME280;4876;42.656;23.292;2023-07-13T12:53:20;94435.97;;;36.09;30.86
9676;BME280;4876;42.656;23.292;2023-07-13T12:55:49;94438.59;;;36.18;30.44
9676;BME280;4876;42.656;23.292;2023-07-13T12:58:21;94435.06;;;36.32;30.93
9676;BME280;4876;42.656;23.292;2023-07-13T13:00:53;94432.63;;;36.34;30.50
9676;BME280;4876;42.656;23.292;2023-07-13T13:03:24;94427.41;;;36.51;31.05
9676;BME280;4876;42.656;23.292;2023-07-13T13:06:00;94430.56;;;36.00;32.65
9676;BME280;4876;42.656;23.292;2023-07-13T13:08:28;94416.41;;;35.86;33.91
9676;BME280;4876;42.656;23.292;2023-07-13T13:10:55;94418.84;;;36.14;31.65
9676;BME280;4876;42.656;23.292;2023-07-13T13:13:23;94418.41;;;36.16;29.75
9676;BME280;4876;42.656;23.292;2023-07-13T13:15:50;94414.41;;;36.02;30.76
9676;BME280;4876;42.656;23.292;2023-07-13T13:18:18;94407.81;;;36.08;30.93
9676;BME280;4876;42.656;23.292;2023-07-13T13:20:46;94404.00;;;36.21;30.82